Time;durP1;ratioP1;P1;durP2;ratioP2;P2;SDS_P1;SDS_P2;PMS_P1;PMS_P2;Temp;Humidity;BMP_temperature;BMP_pressure;BME280_temperature;BME280_humidity;BME280_pressure;Samples;Min_cycle;Max_cycle;Signal;HPM_P1;HPM_P2
2023/04/29 00:00:52;;;;;;;24.23;8.97;;;9.30;65.80;;;9.29;49.46;95009.56;5006898;28;20458;-68
2023/04/29 00:03:20;;;;;;;15.67;9.70;;;9.30;66.40;;;9.27;49.19;95014.13;4993958;28;20487;-67
2023/04/29 00:05:47;;;;;;;15.40;8.53;;;9.20;66.30;;;9.24;49.50;95015.19;4994289;28;20478;-69
2023/04/29 00:08:14;;;;;;;12.53;7.60;;;9.20;66.30;;;9.21;49.55;95012.81;4989759;28;20800;-56
2023/04/29 00:10:43;;;;;;;20.30;8.90;;;9.20;66.70;;;9.20;50.16;95015.56;4993782;28;20454;-69
2023/04/29 00:13:11;;;;;;;11.50;7.87;;;9.10;66.80;;;9.17;49.74;95015.81;4995261;28;20875;-56
2023/04/29 00:15:39;;;;;;;12.00;8.60;;;9.10;67.10;;;9.13;49.73;95015.25;4999074;28;20950;-68
2023/04/29 00:18:06;;;;;;;12.43;6.77;;;9.10;67.20;;;9.10;50.08;95018.97;4995922;28;20576;-68
2023/04/29 00:20:33;;;;;;;10.90;7.47;;;9.10;68.10;;;9.09;49.69;95021.72;4995931;28;20923;-55
2023/04/29 00:23:01;;;;;;;14.47;7.13;;;9.10;66.90;;;9.06;50.04;95014.09;4993168;28;20469;-69
2023/04/29 00:25:28;;;;;;;10.87;7.07;;;9.00;67.50;;;9.02;49.78;95017.94;4995290;28;20470;-56
2023/04/29 00:28:00;;;;;;;8.33;6.00;;;9.00;67.20;;;8.99;50.13;95016.41;4997583;28;20844;-57
2023/04/29 00:30:27;;;;;;;11.70;6.50;;;8.90;67.60;;;8.96;50.25;95020.09;4993068;28;20468;-55
2023/04/29 00:32:55;;;;;;;9.20;6.03;;;9.00;67.50;;;8.94;50.25;95013.34;4995640;28;21080;-56
2023/04/29 00:35:22;;;;;;;13.37;6.40;;;8.90;68.00;;;8.93;50.63;95017.72;4993868;28;20447;-68
2023/04/29 00:37:49;;;;;;;9.80;5.83;;;8.90;68.30;;;8.88;49.61;95019.91;4993902;28;20511;-64
2023/04/29 00:40:17;;;;;;;16.50;5.40;;;8.90;67.60;;;8.85;50.22;95017.53;4996710;28;20462;-57
2023/04/29 00:42:44;;;;;;;18.23;6.80;;;8.90;67.60;;;8.82;50.75;95015.16;4996682;28;20585;-68
2023/04/29 00:45:13;;;;;;;7.10;6.27;;;8.80;68.00;;;8.80;50.62;95011.84;4996807;28;20454;-67
2023/04/29 00:47:40;;;;;;;6.73;5.60;;;8.80;68.30;;;8.79;50.56;95013.59;4994621;28;20482;-55
2023/04/29 00:50:09;;;;;;;13.37;5.53;;;8.80;69.20;;;8.80;50.39;95011.84;4996383;28;20957;-56
2023/04/29 00:52:36;;;;;;;10.00;5.47;;;8.80;68.50;;;8.78;51.33;95014.59;4995215;28;20855;-68
2023/04/29 00:55:04;;;;;;;13.77;5.53;;;8.70;69.10;;;8.78;50.78;95008.50;4992471;28;20801;-69
2023/04/29 00:57:33;;;;;;;8.27;5.40;;;8.70;68.80;;;8.75;50.59;94999.09;4995227;28;20524;-55
2023/04/29 01:00:00;;;;;;;9.60;5.70;;;8.70;68.70;;;8.75;50.74;94996.47;4996719;28;20466;-68
2023/04/29 01:02:29;;;;;;;7.60;5.40;;;8.70;68.80;;;8.73;50.46;94995.75;4994465;28;20482;-57
2023/04/29 01:04:56;;;;;;;7.70;6.00;;;8.70;69.00;;;8.71;50.51;94989.81;4995050;28;20546;-57
2023/04/29 01:07:30;;;;;;;6.90;4.70;;;8.70;69.00;;;8.67;51.46;94987.56;4999047;28;20486;-69
2023/04/29 01:10:03;;;;;;;9.20;5.80;;;8.70;69.70;;;8.66;51.23;94985.88;4991054;28;20542;-69
2023/04/29 01:12:35;;;;;;;16.73;6.00;;;8.60;69.40;;;8.65;50.74;94987.69;4999546;28;20477;-68
2023/04/29 01:15:06;;;;;;;7.83;5.40;;;8.60;69.50;;;8.64;51.41;94983.41;4992659;28;20450;-56
2023/04/29 01:17:40;;;;;;;8.90;5.83;;;8.60;70.30;;;8.63;51.84;94983.53;4998822;28;20497;-68
2023/04/29 01:20:09;;;;;;;7.30;5.97;;;8.60;70.50;;;8.60;51.84;94980.19;4988637;28;20464;-69
2023/04/29 01:22:38;;;;;;;9.17;5.30;;;8.60;70.60;;;8.59;51.76;94980.31;4991166;28;20480;-67
2023/04/29 01:25:07;;;;;;;5.23;4.73;;;8.60;71.00;;;8.58;51.70;94981.28;4994560;28;20876;-68
2023/04/29 01:27:41;;;;;;;10.57;5.13;;;8.60;71.10;;;8.55;51.66;94987.63;4996193;28;20524;-68
2023/04/29 01:30:12;;;;;;;8.20;5.60;;;8.50;71.20;;;8.52;53.05;94987.88;4993260;28;20461;-68
2023/04/29 01:32:47;;;;;;;15.47;5.70;;;8.50;72.10;;;8.51;52.66;94986.19;4991695;28;20467;-57
2023/04/29 01:35:27;;;;;;;11.60;5.10;;;8.50;72.00;;;8.48;52.65;94978.56;4997031;28;21064;-67
2023/04/29 01:38:00;;;;;;;8.90;5.33;;;8.40;72.30;;;8.45;52.09;94976.19;4992976;28;20567;-55
2023/04/29 01:40:34;;;;;;;12.57;5.50;;;8.50;72.20;;;8.44;52.58;94974.53;4992248;28;20450;-55
2023/04/29 01:43:03;;;;;;;7.13;5.50;;;8.40;72.00;;;8.40;52.43;94973.91;4991514;28;20481;-69
2023/04/29 01:45:31;;;;;;;10.33;5.70;;;8.40;72.60;;;8.38;53.07;94972.38;4996335;28;20457;-56
2023/04/29 01:47:58;;;;;;;8.57;5.80;;;8.40;72.90;;;8.35;52.61;94970.00;4990064;28;20478;-69
2023/04/29 01:50:25;;;;;;;17.30;7.10;;;8.30;72.80;;;8.33;52.96;94970.13;4993085;28;20822;-56
2023/04/29 01:52:52;;;;;;;10.30;6.30;;;8.30;73.20;;;8.29;52.86;94973.97;4992590;28;20478;-68
2023/04/29 01:55:20;;;;;;;11.43;6.50;;;8.30;73.40;;;8.28;52.82;94979.31;4994690;28;20466;-56
2023/04/29 01:57:49;;;;;;;15.30;5.93;;;8.30;73.40;;;8.25;53.23;94980.41;4991416;28;20506;-68
2023/04/29 02:00:16;;;;;;;9.10;6.93;;;8.20;73.60;;;8.23;53.53;94983.13;4993625;28;20459;-57
2023/04/29 02:02:43;;;;;;;12.50;7.67;;;8.20;73.80;;;8.21;52.94;94981.59;4997003;28;20834;-69
2023/04/29 02:05:11;;;;;;;12.43;7.30;;;8.20;74.00;;;8.18;53.75;94990.53;4989978;28;20463;-57
2023/04/29 02:07:38;;;;;;;14.13;7.40;;;8.20;74.00;;;8.15;53.14;94985.53;4995819;28;20480;-57
2023/04/29 02:10:07;;;;;;;13.13;8.23;;;8.20;74.40;;;8.13;52.89;94984.81;4993201;28;21349;-56
2023/04/29 02:12:35;;;;;;;16.63;7.53;;;8.10;73.80;;;8.10;53.41;94982.44;4996665;28;21056;-56
2023/04/29 02:15:04;;;;;;;11.73;7.13;;;8.10;74.40;;;8.06;53.51;94992.34;4991485;28;20450;-54
2023/04/29 02:17:32;;;;;;;9.70;7.40;;;8.10;74.00;;;8.03;53.25;94976.03;4994434;28;20497;-55
2023/04/29 02:19:59;;;;;;;12.00;7.27;;;8.00;74.80;;;8.00;53.69;94981.53;4989411;28;20450;-55
2023/04/29 02:22:26;;;;;;;12.67;7.80;;;8.00;74.80;;;7.97;53.44;94976.53;4991937;28;20480;-55
2023/04/29 02:24:53;;;;;;;23.23;7.17;;;8.00;74.80;;;7.94;53.23;94982.00;4994142;28;20524;-68
2023/04/29 02:27:21;;;;;;;10.37;6.47;;;7.90;74.70;;;7.92;53.30;94981.28;4995507;28;20855;-67
2023/04/29 02:29:50;;;;;;;17.43;6.53;;;7.90;74.80;;;7.88;53.58;94978.94;4993070;28;20462;-56
2023/04/29 02:32:19;;;;;;;10.50;6.57;;;7.90;74.70;;;7.85;53.84;94980.94;4991060;28;20465;-56
2023/04/29 02:34:46;;;;;;;6.80;5.43;;;7.90;74.70;;;7.82;53.98;94973.31;4995438;28;20505;-57
2023/04/29 02:37:14;;;;;;;8.90;5.50;;;7.80;75.20;;;7.77;53.87;94984.16;4991498;28;20796;-68
2023/04/29 02:39:41;;;;;;;10.67;5.73;;;7.80;74.70;;;7.73;53.29;94977.50;4993299;28;20897;-67
2023/04/29 02:42:09;;;;;;;15.57;6.43;;;7.70;75.20;;;7.70;53.66;94970.72;4994279;28;20893;-59
2023/04/29 02:44:36;;;;;;;6.07;5.07;;;7.70;74.70;;;7.65;53.61;94972.00;4995088;28;20525;-68
2023/04/29 02:47:04;;;;;;;10.23;5.17;;;7.70;74.80;;;7.60;53.75;94972.38;4986039;28;20488;-68
2023/04/29 02:49:32;;;;;;;15.27;6.30;;;7.60;75.00;;;7.52;53.54;94969.53;4991860;28;20455;-68
2023/04/29 02:52:00;;;;;;;8.20;5.00;;;7.60;74.70;;;7.49;53.49;94975.81;4994331;28;20475;-68
2023/04/29 02:54:27;;;;;;;9.03;5.83;;;7.50;75.10;;;7.45;53.53;94984.88;4996394;28;20466;-57
2023/04/29 02:56:54;;;;;;;9.07;4.87;;;7.50;75.50;;;7.40;53.57;94994.84;4990564;28;20478;-68
2023/04/29 02:59:22;;;;;;;10.73;5.70;;;7.50;75.70;;;7.36;53.77;94994.25;4996600;28;21010;-67
2023/04/29 03:01:49;;;;;;;12.67;5.13;;;7.40;75.80;;;7.31;53.97;94991.16;4991361;28;20515;-56
2023/04/29 03:04:16;;;;;;;5.40;4.90;;;7.40;75.40;;;7.27;53.50;94987.09;4996068;28;20454;-56
2023/04/29 03:06:45;;;;;;;9.10;5.03;;;7.30;75.60;;;7.23;54.24;94995.31;4993979;28;20464;-67
2023/04/29 03:09:13;;;;;;;8.33;4.90;;;7.30;76.10;;;7.17;53.73;94992.22;4988977;28;20465;-57
2023/04/29 03:11:41;;;;;;;8.23;6.07;;;7.20;75.90;;;7.14;54.09;94988.97;4999472;28;20500;-57
2023/04/29 03:14:08;;;;;;;13.97;6.40;;;7.20;76.10;;;7.11;53.81;95003.13;4987525;28;20490;-55
2023/04/29 03:16:35;;;;;;;7.00;5.40;;;7.10;76.40;;;7.10;53.72;94998.03;4993368;28;20454;-57
2023/04/29 03:19:02;;;;;;;9.93;8.10;;;7.10;76.30;;;7.05;53.95;94993.13;4995588;28;20493;-68
2023/04/29 03:21:30;;;;;;;13.60;7.93;;;7.10;76.40;;;7.04;53.92;95004.53;4990911;28;20571;-56
2023/04/29 03:23:58;;;;;;;9.13;8.00;;;7.10;76.50;;;6.99;54.22;95009.28;4997877;28;21032;-56
2023/04/29 03:26:26;;;;;;;32.03;18.00;;;7.00;76.70;;;6.96;53.73;95020.78;4996986;28;20953;-68
2023/04/29 03:28:53;;;;;;;28.83;20.37;;;7.00;76.60;;;6.94;54.36;95032.31;4998699;28;20477;-68
2023/04/29 03:31:22;;;;;;;22.93;13.77;;;7.00;76.90;;;6.91;54.12;95030.78;4993492;28;20446;-69
2023/04/29 03:33:49;;;;;;;9.70;7.43;;;7.00;76.80;;;6.89;54.59;95029.22;4997581;28;20481;-58
2023/04/29 03:36:17;;;;;;;15.70;6.07;;;6.90;76.90;;;6.88;54.28;95038.00;4997578;28;20461;-58
2023/04/29 03:38:44;;;;;;;9.37;6.30;;;6.90;77.20;;;6.86;54.58;95026.81;5000234;28;20499;-68
2023/04/29 03:41:13;;;;;;;19.37;5.60;;;6.90;77.30;;;6.86;54.67;95029.44;5002022;28;20472;-68
2023/04/29 03:43:42;;;;;;;14.17;6.00;;;6.90;77.50;;;6.85;54.16;95020.78;4999109;28;20514;-54
2023/04/29 03:46:10;;;;;;;14.30;5.00;;;6.90;77.70;;;6.86;54.52;95018.97;4990654;28;20453;-56
2023/04/29 03:48:37;;;;;;;9.37;5.80;;;6.90;78.10;;;6.87;54.44;95020.66;4997555;28;20478;-68
2023/04/29 03:51:05;;;;;;;10.67;6.50;;;6.90;78.40;;;6.87;54.58;95015.44;4996078;28;20445;-67
2023/04/29 03:53:32;;;;;;;9.80;5.80;;;6.90;78.20;;;6.93;54.96;95012.34;4995047;28;20537;-56
2023/04/29 03:55:59;;;;;;;7.30;5.63;;;7.00;78.30;;;6.98;54.45;95012.84;4992627;28;20540;-69
2023/04/29 03:58:28;;;;;;;45.27;7.53;;;7.00;78.30;;;7.04;54.61;95016.78;4994115;28;20505;-69
2023/04/29 04:00:56;;;;;;;20.47;6.40;;;7.10;78.60;;;7.09;54.49;95018.09;4998089;28;20458;-57
2023/04/29 04:03:26;;;;;;;12.43;6.60;;;7.10;78.50;;;7.14;54.94;95018.59;4992171;28;20538;-57
2023/04/29 04:05:53;;;;;;;26.13;6.10;;;7.20;78.90;;;7.20;54.60;95029.53;4995751;28;20462;-56
2023/04/29 04:08:21;;;;;;;22.53;6.73;;;7.20;79.00;;;7.25;54.40;95030.03;4994854;28;20498;-56
2023/04/29 04:10:48;;;;;;;9.40;5.30;;;7.30;78.80;;;7.30;54.14;95035.75;4994163;28;20470;-56
2023/04/29 04:13:15;;;;;;;9.23;5.37;;;7.30;78.40;;;7.36;54.22;95033.50;4991837;28;21112;-57
2023/04/29 04:15:49;;;;;;;12.80;5.80;;;7.30;78.30;;;7.44;54.58;95042.56;4997816;28;20458;-68
2023/04/29 04:18:17;;;;;;;8.10;5.50;;;7.40;78.50;;;7.50;54.36;95037.69;4994502;28;20612;-69
2023/04/29 04:20:44;;;;;;;10.20;6.30;;;7.50;78.50;;;7.58;54.37;95036.28;4996861;28;20466;-56
2023/04/29 04:23:11;;;;;;;8.13;5.17;;;7.50;78.10;;;7.64;53.94;95027.97;4997295;28;20857;-57
2023/04/29 04:25:39;;;;;;;9.67;5.10;;;7.60;78.50;;;7.72;53.75;95025.56;4994507;28;20461;-69
2023/04/29 04:28:06;;;;;;;10.03;5.13;;;7.70;78.30;;;7.79;53.44;95021.53;4996755;28;20859;-68
2023/04/29 04:30:35;;;;;;;8.03;5.83;;;7.70;77.90;;;7.86;53.76;95027.94;4997541;28;21014;-68
2023/04/29 04:33:04;;;;;;;12.03;5.17;;;7.80;77.70;;;7.93;53.30;95022.22;4994453;28;20484;-69
2023/04/29 04:35:32;;;;;;;6.97;5.60;;;7.90;77.70;;;8.02;53.07;95029.38;4996525;28;21246;-57
2023/04/29 04:37:59;;;;;;;12.60;5.53;;;8.00;77.70;;;8.09;52.96;95027.94;4998485;28;20493;-68
2023/04/29 04:40:27;;;;;;;12.37;7.07;;;8.10;77.70;;;8.16;53.25;95036.97;4997250;28;20468;-57
2023/04/29 04:42:54;;;;;;;25.40;6.87;;;8.10;77.60;;;8.24;53.54;95037.22;4994071;28;20596;-69
2023/04/29 04:45:21;;;;;;;10.43;7.50;;;8.20;77.50;;;8.32;53.53;95038.38;4996918;28;20519;-56
2023/04/29 04:47:49;;;;;;;15.50;7.10;;;8.30;77.60;;;8.39;53.47;95029.09;4994854;28;20552;-68
2023/04/29 04:50:18;;;;;;;9.70;6.67;;;8.30;77.90;;;8.44;52.80;95026.94;4993987;28;20470;-69
2023/04/29 04:52:45;;;;;;;15.33;6.70;;;8.40;77.40;;;8.49;52.87;95024.81;4993491;28;20574;-55
2023/04/29 04:55:12;;;;;;;7.93;5.00;;;8.40;77.10;;;8.56;53.22;95030.38;4987057;28;20540;-68
2023/04/29 04:57:40;;;;;;;17.83;6.60;;;8.50;77.30;;;8.61;52.43;95028.22;4993212;28;21048;-69
2023/04/29 05:00:09;;;;;;;14.20;7.70;;;8.60;76.90;;;8.70;52.89;95021.41;4995605;28;20464;-68
2023/04/29 05:02:36;;;;;;;10.40;6.17;;;8.60;76.90;;;8.79;53.06;95015.41;4996248;28;20489;-69
2023/04/29 05:05:04;;;;;;;10.30;5.63;;;8.70;76.80;;;8.86;52.22;95016.59;4993563;28;20573;-69
2023/04/29 05:07:34;;;;;;;5.97;4.67;;;8.80;76.10;;;8.95;51.98;95017.59;4998361;28;20478;-68
2023/04/29 05:10:01;;;;;;;8.80;5.80;;;8.90;75.70;;;9.04;51.87;95011.59;4993074;28;20470;-69
2023/04/29 05:12:29;;;;;;;13.43;5.70;;;8.90;75.60;;;9.14;52.20;94998.56;4999214;28;20474;-68
2023/04/29 05:14:57;;;;;;;19.53;7.00;;;9.00;75.70;;;9.22;51.54;95000.56;4992933;28;20482;-69
2023/04/29 05:17:24;;;;;;;14.93;6.33;;;9.10;75.50;;;9.29;51.86;95002.50;4992751;28;20479;-57
2023/04/29 05:19:51;;;;;;;12.50;6.60;;;9.20;75.30;;;9.38;51.27;94998.28;4990387;28;20505;-68
2023/04/29 05:22:19;;;;;;;12.63;7.23;;;9.30;75.10;;;9.45;51.24;95003.84;4992597;28;21029;-57
2023/04/29 05:24:48;;;;;;;14.87;8.70;;;9.30;74.90;;;9.51;51.35;95004.16;4993650;28;20453;-69
2023/04/29 05:27:15;;;;;;;15.00;5.53;;;9.40;74.80;;;9.58;51.23;94995.78;4992900;28;20577;-68
2023/04/29 05:29:42;;;;;;;6.90;6.17;;;9.50;74.90;;;9.64;51.17;95001.31;4992340;28;20959;-68
2023/04/29 05:32:10;;;;;;;15.13;7.30;;;9.60;74.90;;;9.70;50.97;94994.72;4993123;28;20586;-68
2023/04/29 05:34:37;;;;;;;16.23;6.97;;;9.60;74.70;;;9.77;50.93;94995.03;4993961;28;20870;-56
2023/04/29 05:37:05;;;;;;;15.20;5.60;;;9.70;74.40;;;9.84;50.94;94997.00;4994954;28;20997;-55
2023/04/29 05:39:32;;;;;;;16.03;5.90;;;9.80;74.40;;;9.92;50.72;94991.06;4992910;28;20493;-56
2023/04/29 05:42:01;;;;;;;14.27;6.97;;;9.90;74.20;;;10.01;50.50;94998.16;4996096;28;20628;-67
2023/04/29 05:44:28;;;;;;;9.77;6.67;;;9.90;73.90;;;10.11;50.58;95000.00;4996244;28;20472;-69
2023/04/29 05:46:55;;;;;;;10.10;6.40;;;10.00;72.90;;;10.20;50.83;95007.91;4991120;28;21049;-57
2023/04/29 05:49:23;;;;;;;17.80;7.87;;;10.10;73.10;;;10.31;50.74;95004.31;4993661;28;20456;-56
2023/04/29 05:51:51;;;;;;;27.43;7.80;;;10.20;73.10;;;10.41;50.80;95001.78;4993260;28;20528;-58
2023/04/29 05:54:18;;;;;;;11.20;6.70;;;10.30;73.10;;;10.52;50.14;95000.81;4992766;28;20459;-68
2023/04/29 05:56:45;;;;;;;14.90;6.30;;;10.40;72.40;;;10.64;50.21;94999.69;4989947;28;20460;-68
2023/04/29 05:59:14;;;;;;;9.13;7.00;;;10.50;72.50;;;10.88;49.89;95007.19;4993827;28;20916;-69
2023/04/29 06:01:41;;;;;;;9.27;6.83;;;10.70;72.30;;;11.13;49.76;95005.81;4991685;28;20989;-57
2023/04/29 06:04:09;;;;;;;21.57;6.90;;;10.90;72.30;;;11.41;49.30;94998.00;4993146;28;20461;-56
2023/04/29 06:06:36;;;;;;;8.90;6.00;;;11.20;71.80;;;11.67;49.46;95000.03;4994008;28;20486;-75
2023/04/29 06:09:04;;;;;;;15.87;8.03;;;11.40;72.00;;;12.03;49.76;94997.56;4989349;28;20906;-57
2023/04/29 06:11:31;;;;;;;20.93;7.60;;;11.70;73.10;;;12.42;47.71;94989.44;4989035;28;20914;-75
2023/04/29 06:13:58;;;;;;;18.30;7.73;;;12.00;70.00;;;12.74;48.11;94993.41;4994253;28;20449;-56
2023/04/29 06:16:28;;;;;;;9.43;6.90;;;12.40;70.60;;;13.05;48.07;94998.31;4991989;28;20559;-58
2023/04/29 06:18:55;;;;;;;12.63;7.40;;;12.70;70.80;;;13.34;46.85;94997.25;4999941;28;20493;-57
2023/04/29 06:21:23;;;;;;;255.33;16.43;;;13.00;68.30;;;13.54;46.91;94998.72;4988690;28;20506;-77
2023/04/29 06:23:51;;;;;;;10.57;6.90;;;13.20;67.90;;;13.78;46.19;95003.34;4995819;28;20545;-76
2023/04/29 06:26:19;;;;;;;12.17;5.90;;;13.40;67.20;;;14.03;45.79;94998.19;4990088;28;20460;-77
2023/04/29 06:28:47;;;;;;;8.83;6.40;;;13.70;66.60;;;14.30;45.52;94997.16;4991686;28;20475;-56
2023/04/29 06:31:14;;;;;;;11.17;6.80;;;13.90;66.30;;;14.57;44.58;94992.59;4995963;28;20470;-58
2023/04/29 06:33:43;;;;;;;14.90;6.83;;;14.20;65.10;;;14.81;44.37;94999.81;4995114;28;20482;-71
2023/04/29 06:36:10;;;;;;;10.17;5.83;;;14.50;64.50;;;15.01;43.95;94995.03;4997931;28;20462;-75
2023/04/29 06:38:38;;;;;;;12.00;6.37;;;14.60;63.80;;;15.20;43.49;94980.63;4997124;28;20502;-73
2023/04/29 06:41:06;;;;;;;9.20;6.07;;;14.80;62.90;;;15.41;43.26;94977.50;4997259;28;20675;-74
2023/04/29 06:43:33;;;;;;;6.77;5.50;;;15.10;62.60;;;15.68;42.85;94986.06;4990377;28;20593;-68
2023/04/29 06:46:00;;;;;;;12.70;5.80;;;15.30;61.80;;;15.92;42.37;94979.06;4990942;28;20469;-71
2023/04/29 06:48:28;;;;;;;10.03;5.27;;;15.50;60.90;;;16.08;41.62;94986.16;4993006;28;20543;-71
2023/04/29 06:50:57;;;;;;;13.73;5.03;;;15.70;59.80;;;16.24;41.70;94985.28;4994884;28;20457;-57
2023/04/29 06:53:25;;;;;;;11.70;5.50;;;15.80;60.00;;;16.43;41.35;94981.38;4993502;28;20504;-57
2023/04/29 06:55:52;;;;;;;5.20;4.70;;;16.00;59.30;;;16.63;40.94;94979.13;4987359;28;20839;-74
2023/04/29 06:58:20;;;;;;;10.65;6.05;;;16.20;59.10;;;16.83;40.77;94988.28;4996695;28;20470;-58
2023/04/29 07:00:48;;;;;;;11.23;5.83;;;16.40;58.60;;;17.07;40.81;94981.22;4994715;28;21011;-75
2023/04/29 07:03:16;;;;;;;18.33;5.60;;;16.60;58.60;;;17.29;40.54;94976.88;4998416;28;20466;-57
2023/04/29 07:05:44;;;;;;;7.63;5.90;;;16.90;58.10;;;17.48;40.20;94969.41;4992809;28;20454;-72
2023/04/29 07:08:13;;;;;;;15.67;6.47;;;17.10;57.50;;;17.60;39.17;94970.63;4995564;28;20470;-58
2023/04/29 07:10:41;;;;;;;9.77;5.20;;;17.20;57.00;;;17.64;39.15;94966.59;4994179;28;20862;-74
2023/04/29 07:13:08;;;;;;;6.00;5.47;;;17.20;56.50;;;17.58;39.28;94971.81;4987091;28;20489;-58
2023/04/29 07:15:36;;;;;;;13.63;6.73;;;17.20;56.30;;;17.53;39.02;94967.84;4985776;28;20451;-77
2023/04/29 07:18:04;;;;;;;10.77;6.23;;;17.20;55.80;;;17.42;38.90;94975.44;4986358;28;20482;-76
2023/04/29 07:20:31;;;;;;;8.70;6.40;;;17.10;55.50;;;17.33;38.77;94969.38;4992140;28;20486;-56
2023/04/29 07:22:59;;;;;;;12.27;5.93;;;17.00;55.20;;;17.24;38.98;94967.78;4987491;28;20473;-69
2023/04/29 07:25:28;;;;;;;9.90;6.60;;;16.90;55.30;;;17.23;38.31;94971.44;4987243;28;20446;-57
2023/04/29 07:27:56;;;;;;;9.37;5.30;;;16.90;54.80;;;17.24;38.78;94978.41;4994635;28;20883;-69
2023/04/29 07:30:23;;;;;;;24.43;6.63;;;16.90;55.20;;;17.44;38.63;94974.25;4993827;28;20525;-68
2023/04/29 07:32:51;;;;;;;15.50;7.20;;;17.00;55.30;;;17.63;38.21;94964.94;4990943;28;20473;-72
2023/04/29 07:35:18;;;;;;;20.23;9.17;;;17.20;55.10;;;17.76;38.34;94971.47;4998256;28;20966;-58
2023/04/29 07:37:45;;;;;;;12.50;5.90;;;17.30;54.70;;;17.87;38.36;94963.84;4999718;28;20528;-57
2023/04/29 07:40:13;;;;;;;18.77;6.43;;;17.40;54.80;;;18.14;38.21;94961.63;4993225;28;20494;-72
2023/04/29 07:42:41;;;;;;;10.37;5.87;;;17.70;54.70;;;18.49;37.20;94955.69;4991255;28;20490;-68
2023/04/29 07:45:10;;;;;;;13.17;7.30;;;18.00;54.40;;;18.63;37.26;94957.50;4982963;28;20462;-57
2023/04/29 07:47:38;;;;;;;8.50;6.03;;;18.20;53.10;;;18.64;36.64;94953.81;4999375;28;20489;-76
2023/04/29 07:50:07;;;;;;;11.30;6.00;;;18.30;52.80;;;18.65;36.98;94955.44;5003452;28;20481;-57
2023/04/29 07:52:34;;;;;;;9.00;5.83;;;18.30;52.60;;;18.78;37.02;94954.78;4996886;28;20482;-76
2023/04/29 07:55:02;;;;;;;8.63;5.80;;;18.40;52.80;;;18.99;35.01;94951.34;4995712;28;20481;-79
2023/04/29 07:57:29;;;;;;;13.00;6.37;;;18.60;51.40;;;19.13;36.44;94946.97;4993297;28;20834;-57
2023/04/29 07:59:58;;;;;;;7.37;5.00;;;18.80;52.50;;;19.48;36.33;94939.06;4984077;28;20490;-72
2023/04/29 08:02:25;;;;;;;13.03;5.83;;;19.00;52.60;;;19.90;35.94;94947.19;4989659;28;20485;-57
2023/04/29 08:04:54;;;;;;;10.60;5.80;;;19.40;52.40;;;20.35;35.72;94940.44;4994463;28;20462;-75
2023/04/29 08:07:21;;;;;;;14.23;5.77;;;19.80;52.40;;;20.78;34.93;94939.41;4994518;28;20553;-57
2023/04/29 08:09:49;;;;;;;33.43;6.27;;;20.20;51.70;;;21.13;33.16;94942.75;4998460;28;20985;-57
2023/04/29 08:12:16;;;;;;;37.80;6.80;;;20.60;49.80;;;21.37;33.83;94935.16;4993973;28;20481;-74
2023/04/29 08:14:44;;;;;;;8.67;4.30;;;20.90;49.80;;;21.57;33.38;94934.38;4991384;28;20458;-70
2023/04/29 08:17:12;;;;;;;8.30;6.10;;;21.10;49.00;;;21.73;33.03;94931.25;4995435;28;20502;-55
2023/04/29 08:19:40;;;;;;;14.37;7.07;;;21.30;48.80;;;22.01;32.42;94923.00;4998516;28;20501;-59
2023/04/29 08:22:07;;;;;;;10.60;5.53;;;21.60;48.90;;;22.37;33.27;94927.03;4996203;28;20532;-57
2023/04/29 08:24:34;;;;;;;7.83;5.00;;;21.90;48.90;;;22.73;32.52;94925.63;4994246;28;20781;-72
2023/04/29 08:27:02;;;;;;;8.87;5.80;;;22.20;48.40;;;23.09;32.40;94923.38;4995673;28;20553;-57
2023/04/29 08:29:33;;;;;;;12.77;5.43;;;22.70;47.90;;;23.49;31.50;94917.72;4994128;28;20453;-72
2023/04/29 08:32:00;;;;;;;20.80;5.80;;;23.00;47.90;;;23.92;30.95;94918.81;4987324;28;20474;-57
2023/04/29 08:34:30;;;;;;;18.33;6.13;;;23.30;46.80;;;24.32;30.58;94921.91;4990009;28;20504;-75
2023/04/29 08:36:58;;;;;;;12.93;5.63;;;23.80;46.30;;;24.55;30.71;94914.19;4997466;28;20555;-74
2023/04/29 08:39:25;;;;;;;12.07;5.80;;;24.00;46.60;;;24.64;30.67;94910.19;4993801;28;20524;-57
2023/04/29 08:41:53;;;;;;;8.57;5.10;;;24.10;45.50;;;24.55;30.16;94909.63;4993396;28;20617;-57
2023/04/29 08:44:21;;;;;;;19.50;5.67;;;24.10;44.80;;;24.46;30.05;94905.59;4991726;28;20461;-74
2023/04/29 08:46:48;;;;;;;7.30;5.27;;;24.10;44.40;;;24.56;29.67;94915.84;4999533;28;20466;-56
2023/04/29 08:49:16;;;;;;;8.57;5.40;;;24.20;44.20;;;24.74;29.60;94912.31;4992991;28;20974;-72
2023/04/29 08:51:44;;;;;;;8.13;6.03;;;24.40;43.60;;;24.96;28.50;94910.78;4995547;28;20538;-57
2023/04/29 08:54:12;;;;;;;6.53;5.03;;;24.50;42.90;;;25.00;28.60;94911.13;5003455;28;20517;-58
2023/04/29 08:56:39;;;;;;;11.33;5.80;;;24.60;42.40;;;24.90;28.87;94910.88;5003129;28;21032;-73
2023/04/29 08:59:07;;;;;;;10.67;5.70;;;24.50;42.00;;;24.98;28.21;94915.94;5000833;28;20518;-58
2023/04/29 09:01:34;;;;;;;17.50;5.50;;;24.50;42.60;;;25.14;28.57;94906.38;4991088;28;20451;-73
2023/04/29 09:04:08;;;;;;;6.93;5.20;;;24.70;42.90;;;25.17;27.91;94905.91;4997361;28;20446;-74
2023/04/29 09:06:36;;;;;;;14.10;4.83;;;24.70;41.80;;;25.08;29.03;94896.53;4988544;28;20535;-73
2023/04/29 09:09:05;;;;;;;19.70;5.10;;;24.60;42.40;;;24.97;28.60;94890.91;4992597;28;20494;-74
2023/04/29 09:11:32;;;;;;;14.30;5.30;;;24.50;42.60;;;24.74;28.82;94893.47;4977679;28;20482;-72
2023/04/29 09:14:00;;;;;;;7.60;5.40;;;24.40;42.80;;;24.46;29.22;94894.84;4982753;28;20475;-56
2023/04/29 09:16:28;;;;;;;9.37;5.60;;;24.20;42.20;;;24.23;28.24;94901.75;4989671;28;21640;-73
2023/04/29 09:18:55;;;;;;;9.80;5.00;;;24.00;41.80;;;24.15;29.21;94896.66;4989576;28;20483;-57
2023/04/29 09:21:24;;;;;;;8.33;4.70;;;23.80;43.00;;;24.19;29.73;94891.66;4987455;28;21014;-65
2023/04/29 09:23:52;;;;;;;5.93;4.27;;;23.80;43.40;;;24.23;29.98;94888.31;4987536;28;20565;-57
2023/04/29 09:26:21;;;;;;;11.07;5.30;;;23.80;43.20;;;24.34;29.24;94884.84;4994009;28;20465;-77
2023/04/29 09:28:48;;;;;;;8.33;4.27;;;23.90;43.30;;;24.61;29.78;94891.81;4990169;28;20497;-75
2023/04/29 09:31:15;;;;;;;13.90;5.10;;;24.10;43.40;;;24.95;28.21;94886.78;4983844;28;20482;-75
2023/04/29 09:33:53;;;;;;;8.07;4.60;;;24.40;41.60;;;25.18;28.39;94884.16;4986710;28;20832;-75
2023/04/29 09:36:40;;;;;;;10.93;5.63;;;24.60;42.30;;;25.45;26.77;94874.84;4983673;28;20485;-57
2023/04/29 09:39:10;;;;;;;7.23;4.20;;;24.90;40.60;;;25.65;27.88;94875.31;4981923;28;20466;-58
2023/04/29 09:41:41;;;;;;;10.60;4.70;;;25.10;41.30;;;25.64;27.23;94865.63;4998577;28;20457;-75
2023/04/29 09:44:10;;;;;;;7.90;4.27;;;25.20;40.20;;;25.66;27.24;94876.97;4990769;28;20524;-58
2023/04/29 09:46:37;;;;;;;15.03;5.00;;;25.20;40.20;;;25.78;27.19;94863.53;4997644;28;20493;-75
2023/04/29 09:49:05;;;;;;;8.53;4.97;;;25.30;40.80;;;25.89;27.02;94862.69;4994603;28;20886;-74
2023/04/29 09:51:32;;;;;;;9.37;6.10;;;25.40;40.00;;;25.69;26.55;94857.66;4991841;28;20462;-75
2023/04/29 09:54:01;;;;;;;6.33;4.50;;;25.30;39.20;;;25.34;26.60;94853.06;5001843;28;20546;-57
2023/04/29 09:56:29;;;;;;;7.10;3.70;;;25.00;39.10;;;25.15;27.29;94848.81;4990590;28;20470;-56
2023/04/29 09:58:59;;;;;;;6.27;3.80;;;24.80;39.90;;;25.04;26.96;94848.53;4985621;28;21065;-58
2023/04/29 10:01:26;;;;;;;8.50;4.30;;;24.60;39.80;;;24.96;27.60;94848.06;4996473;28;20490;-75
2023/04/29 10:03:53;;;;;;;8.80;4.10;;;24.50;39.90;;;24.81;27.45;94837.72;4988035;28;20487;-59
2023/04/29 10:06:21;;;;;;;5.50;3.70;;;24.40;39.60;;;24.68;27.49;94839.56;4999238;28;20461;-75
2023/04/29 10:08:48;;;;;;;8.00;4.40;;;24.30;40.00;;;24.52;27.12;94840.16;4985836;28;20483;-75
2023/04/29 10:11:15;;;;;;;6.70;4.00;;;24.10;39.80;;;24.29;27.25;94840.88;4992910;28;20545;-75
2023/04/29 10:13:43;;;;;;;5.53;3.20;;;23.90;39.80;;;24.02;27.32;94829.66;4993440;28;20473;-58
2023/04/29 10:16:20;;;;;;;3.93;3.00;;;23.70;39.50;;;23.80;28.35;94833.56;4995359;28;20536;-75
2023/04/29 10:18:52;;;;;;;9.23;4.10;;;23.50;40.50;;;23.62;28.64;94826.31;4996582;28;20487;-58
2023/04/29 10:21:19;;;;;;;20.17;3.90;;;23.20;40.50;;;23.41;28.73;94824.88;4995505;28;21104;-57
2023/04/29 10:23:47;;;;;;;6.53;3.03;;;23.10;41.10;;;23.28;28.36;94824.97;4995953;28;20478;-73
2023/04/29 10:26:14;;;;;;;12.93;3.60;;;22.90;40.50;;;23.19;28.15;94828.97;4995753;28;21053;-76